createdAt,value
2018-03-18T10:00:27.832Z,61.70
2018-03-18T10:02:56.096Z,61.00
2018-03-18T10:05:23.595Z,61.00
2018-03-18T10:19:25.115Z,62.80
2018-03-18T10:21:53.539Z,66.00
2018-03-18T10:24:21.235Z,67.60
2018-03-18T10:26:49.015Z,71.40
2018-03-18T10:29:17.571Z,72.90
2018-03-18T10:31:45.702Z,73.60
2018-03-18T10:34:15.293Z,73.80
2018-03-18T10:36:44.041Z,73.30
2018-03-18T10:39:11.982Z,73.20
2018-03-18T10:41:39.892Z,74.10
2018-03-18T10:44:10.394Z,74.10
2018-03-18T10:46:38.363Z,73.30
2018-03-18T10:49:06.138Z,73.20
2018-03-18T10:51:34.029Z,73.30
2018-03-18T10:54:02.485Z,73.00
2018-03-18T10:56:32.460Z,73.20
2018-03-18T11:02:04.780Z,74.20
2018-03-18T11:04:32.355Z,73.60
2018-03-18T11:06:59.941Z,76.00
2018-03-18T11:09:27.525Z,77.60
2018-03-18T11:11:55.494Z,75.20
2018-03-18T11:14:23.070Z,74.30
2018-03-18T11:16:50.605Z,75.20
2018-03-18T11:19:20.126Z,74.40
2018-03-18T11:21:47.682Z,73.00
2018-03-18T11:24:16.158Z,71.90
2018-03-18T11:26:43.718Z,74.40
2018-03-18T11:29:11.271Z,72.70
2018-03-18T11:31:38.887Z,75.70
2018-03-18T11:34:07.067Z,74.50
2018-03-18T11:36:34.675Z,74.20
2018-03-18T11:39:02.247Z,73.60
2018-03-18T11:41:29.879Z,74.10
2018-03-18T11:43:59.674Z,76.10
2018-03-18T11:46:27.220Z,75.90
2018-03-18T11:48:54.817Z,73.90
2018-03-18T11:51:23.365Z,74.50
2018-03-18T11:53:50.919Z,76.00
2018-03-18T11:56:19.443Z,73.50
2018-03-18T11:58:47.029Z,74.00
2018-03-18T12:01:14.648Z,73.70
2018-03-18T12:03:43.109Z,73.80
2018-03-18T12:06:10.764Z,73.50
2018-03-18T12:08:50.020Z,73.60
2018-03-18T12:11:17.662Z,75.10
2018-03-18T12:13:45.968Z,75.70
2018-03-18T12:16:13.484Z,75.70
2018-03-18T12:18:41.145Z,76.90
2018-03-18T12:21:08.751Z,76.10
2018-03-18T12:23:36.340Z,77.30
2018-03-18T12:26:04.030Z,78.40
2018-03-18T12:28:31.542Z,76.70
2018-03-18T12:30:59.186Z,77.50
2018-03-18T12:33:27.468Z,77.30
2018-03-18T12:35:55.020Z,77.30
2018-03-18T12:38:22.541Z,78.10
2018-03-18T12:40:52.881Z,78.40
2018-03-18T12:43:30.977Z,78.60
2018-03-18T12:45:58.541Z,77.90
2018-03-18T12:48:26.051Z,76.30
2018-03-18T12:50:53.674Z,76.10
2018-03-18T12:53:21.207Z,77.20
2018-03-18T12:55:49.651Z,77.60
2018-03-18T12:58:18.200Z,77.70
2018-03-18T13:00:45.823Z,77.60
2018-03-18T13:03:13.355Z,78.80
2018-03-18T13:05:40.943Z,78.30
2018-03-18T13:08:08.536Z,78.90
2018-03-18T13:10:36.951Z,78.80
2018-03-18T13:13:04.584Z,78.80
2018-03-18T13:15:33.816Z,79.30
2018-03-18T13:18:02.274Z,78.80
2018-03-18T13:20:29.916Z,80.20
2018-03-18T13:22:57.431Z,78.60
2018-03-18T13:25:25.504Z,81.70
2018-03-18T13:27:53.066Z,81.10
2018-03-18T13:30:20.627Z,80.40
2018-03-18T13:32:50.105Z,80.50
2018-03-18T13:35:17.632Z,80.60
2018-03-18T13:37:45.163Z,81.40
2018-03-18T13:40:12.721Z,81.50
2018-03-18T13:42:40.355Z,81.50
2018-03-18T13:45:07.919Z,81.20
2018-03-18T13:47:35.484Z,80.40
2018-03-18T13:50:03.141Z,80.80
2018-03-18T13:52:30.682Z,82.10
2018-03-18T13:54:58.234Z,81.00
2018-03-18T13:57:25.840Z,80.50
2018-03-18T13:59:53.375Z,81.40
2018-03-18T14:02:22.085Z,81.60
2018-03-18T14:04:50.195Z,82.10
2018-03-18T14:07:18.726Z,81.10
2018-03-18T14:09:46.270Z,82.30
2018-03-18T14:12:13.835Z,81.60
2018-03-18T14:14:42.860Z,82.70
2018-03-18T14:17:11.134Z,82.70
2018-03-18T14:19:38.709Z,82.60
2018-03-18T14:22:06.298Z,82.60
2018-03-18T14:24:33.847Z,82.60
2018-03-18T14:27:01.927Z,83.40
2018-03-18T14:29:29.505Z,82.30
2018-03-18T14:31:57.954Z,83.90
2018-03-18T14:34:25.591Z,83.60
2018-03-18T14:36:53.083Z,84.30
2018-03-18T14:39:20.651Z,83.60
2018-03-18T14:41:49.078Z,84.10
2018-03-18T14:44:16.767Z,86.00
2018-03-18T14:46:44.342Z,85.10
2018-03-18T14:49:13.578Z,86.10
2018-03-18T14:51:41.116Z,86.10
2018-03-18T14:54:18.348Z,85.70
2018-03-18T14:56:45.886Z,85.60
2018-03-18T14:59:13.430Z,86.50
2018-03-18T15:01:41.710Z,86.10
2018-03-18T15:04:09.386Z,86.10
2018-03-18T15:06:37.523Z,86.20
2018-03-18T15:09:07.907Z,84.50
2018-03-18T15:11:36.346Z,85.70
2018-03-18T15:14:03.859Z,85.60
2018-03-18T15:16:31.401Z,86.10
2018-03-18T15:18:59.657Z,85.60
2018-03-18T15:21:27.278Z,85.50
2018-03-18T15:23:55.719Z,84.50
2018-03-18T15:26:23.299Z,83.90
2018-03-18T15:28:51.702Z,84.40
2018-03-18T15:31:19.230Z,84.40
2018-03-18T15:33:48.779Z,86.00
2018-03-18T15:36:16.378Z,84.70
2018-03-18T15:38:44.938Z,84.60
2018-03-18T15:41:12.660Z,84.70
2018-03-18T15:43:40.213Z,84.70
2018-03-18T15:46:07.783Z,83.90
2018-03-18T15:48:36.341Z,84.90
2018-03-18T15:51:04.633Z,84.60
2018-03-18T15:53:32.206Z,84.70
2018-03-18T15:56:00.276Z,85.10
2018-03-18T15:58:27.931Z,85.70
2018-03-18T16:00:55.467Z,86.70
2018-03-18T16:03:23.022Z,86.70
2018-03-18T16:05:52.891Z,84.30
2018-03-18T16:08:20.421Z,84.30
2018-03-18T16:10:48.037Z,84.90
2018-03-18T16:13:15.602Z,85.60
2018-03-18T16:15:44.130Z,85.40
2018-03-18T16:21:20.256Z,85.10
2018-03-18T16:23:49.010Z,85.10
2018-03-18T16:26:17.581Z,87.10
2018-03-18T16:28:45.085Z,84.10
2018-03-18T16:31:16.283Z,85.00
2018-03-18T16:33:44.761Z,84.90
2018-03-18T16:36:13.151Z,85.60
2018-03-18T16:38:40.659Z,85.50
2018-03-18T16:41:08.256Z,84.00
2018-03-18T16:43:35.829Z,85.00
2018-03-18T16:46:07.080Z,84.20
2018-03-18T16:48:35.451Z,84.80
2018-03-18T16:51:21.705Z,84.80
2018-03-18T16:56:40.301Z,85.50
2018-03-18T16:59:07.984Z,84.90
2018-03-18T17:04:09.586Z,84.90
2018-03-18T17:06:37.194Z,85.00
2018-03-18T17:09:04.894Z,84.60
2018-03-18T17:11:33.175Z,85.00
2018-03-18T17:14:01.485Z,86.70
2018-03-18T17:16:29.578Z,86.60
2018-03-18T17:18:57.194Z,86.70
2018-03-18T17:21:24.792Z,86.10
2018-03-18T17:23:53.510Z,84.60
2018-03-18T17:26:22.331Z,85.60
2018-03-18T17:29:08.651Z,85.90
2018-03-18T17:31:36.290Z,84.70
2018-03-18T17:34:03.905Z,84.70
2018-03-18T17:36:32.757Z,85.80
2018-03-18T17:39:01.042Z,85.60
2018-03-18T17:41:31.318Z,85.40
2018-03-18T17:44:04.338Z,84.70
2018-03-18T17:46:44.688Z,84.10
2018-03-18T17:49:25.419Z,85.10
2018-03-18T17:52:17.837Z,86.10
2018-03-18T17:54:57.307Z,86.10
2018-03-18T17:57:24.831Z,85.20
2018-03-18T17:59:52.397Z,87.10
2018-03-18T18:02:21.015Z,85.30
2018-03-18T18:04:50.240Z,85.60
2018-03-18T18:07:18.723Z,85.60
2018-03-18T18:09:46.276Z,85.80
2018-03-18T18:12:14.605Z,86.20
2018-03-18T18:14:44.162Z,86.20
2018-03-18T18:17:14.369Z,84.30
2018-03-18T18:19:41.922Z,84.20
2018-03-18T18:22:33.319Z,85.90
2018-03-18T18:25:00.860Z,84.80
2018-03-18T18:27:28.362Z,84.20
2018-03-18T18:29:56.922Z,85.20
2018-03-18T18:32:24.450Z,84.70
2018-03-18T18:34:52.772Z,85.40
2018-03-18T18:37:22.227Z,85.40
2018-03-18T18:39:49.841Z,86.10
2018-03-18T18:42:17.393Z,84.80
2018-03-18T18:44:45.873Z,84.80
2018-03-18T18:47:14.374Z,85.20
2018-03-18T18:49:43.852Z,85.80
2018-03-18T18:52:14.195Z,85.00
2018-03-18T18:54:42.771Z,85.00
2018-03-18T18:57:11.087Z,85.40
2018-03-18T18:59:38.631Z,85.40
2018-03-18T19:02:07.198Z,84.80
2018-03-18T19:04:34.789Z,85.80
2018-03-18T19:07:03.326Z,86.10
2018-03-18T19:12:46.305Z,85.80
2018-03-18T19:15:15.413Z,86.90
2018-03-18T19:17:44.137Z,85.40
2018-03-18T19:20:14.099Z,85.50
2018-03-18T19:22:43.677Z,85.20
2018-03-18T19:25:22.239Z,85.20
2018-03-18T19:28:11.167Z,84.90
2018-03-18T19:30:40.974Z,85.80
2018-03-18T19:33:11.399Z,85.90
2018-03-18T19:35:40.494Z,84.00
2018-03-18T19:38:10.672Z,85.30
2018-03-18T19:40:49.305Z,85.10
2018-03-18T19:43:17.449Z,85.10
2018-03-18T19:45:44.976Z,85.70
2018-03-18T19:48:12.540Z,85.70
2018-03-18T19:50:40.126Z,85.60
2018-03-18T19:53:26.363Z,84.90
2018-03-18T19:58:48.078Z,84.90
2018-03-18T20:01:16.412Z,85.80
2018-03-18T20:03:43.967Z,85.80
2018-03-18T20:06:11.572Z,85.30
2018-03-18T20:08:39.121Z,85.80
2018-03-18T20:11:06.685Z,86.10
2018-03-18T20:13:59.093Z,85.10
2018-03-18T20:16:26.616Z,84.80
2018-03-18T20:22:20.957Z,86.00
2018-03-18T20:24:49.312Z,86.10
2018-03-18T20:27:18.025Z,85.50
2018-03-18T20:33:04.352Z,85.60
2018-03-18T20:35:33.431Z,85.00
2018-03-18T20:38:01.053Z,84.60
2018-03-18T20:40:29.523Z,85.40
2018-03-18T20:42:58.575Z,85.00
2018-03-18T20:45:27.667Z,87.00
2018-03-18T20:47:55.177Z,87.10
2018-03-18T20:50:22.753Z,86.10
2018-03-18T20:52:50.320Z,84.50
2018-03-18T20:55:17.912Z,84.70
2018-03-18T20:57:46.420Z,85.50
2018-03-18T21:00:15.053Z,85.90
2018-03-18T21:02:42.498Z,85.40
2018-03-18T21:05:12.443Z,84.80
2018-03-18T21:07:39.991Z,84.80
2018-03-18T21:10:07.543Z,85.40
2018-03-18T21:12:35.093Z,84.30
2018-03-18T21:15:02.738Z,85.00
2018-03-18T21:17:30.290Z,85.50
2018-03-18T21:19:57.928Z,85.70
2018-03-18T21:22:25.483Z,86.00
2018-03-18T21:24:53.022Z,84.50
2018-03-18T21:27:20.717Z,86.30
2018-03-18T21:29:48.265Z,86.00
2018-03-18T21:32:16.598Z,84.70
2018-03-18T21:34:44.159Z,84.80
2018-03-18T21:37:11.755Z,86.60
2018-03-18T21:39:41.186Z,84.80
2018-03-18T21:42:09.530Z,85.20
2018-03-18T21:44:38.007Z,85.10
2018-03-18T21:47:06.554Z,85.00
2018-03-18T21:49:34.115Z,85.00
2018-03-18T21:52:02.204Z,85.20
2018-03-18T21:54:29.732Z,85.30
2018-03-18T21:56:58.266Z,86.00
2018-03-18T21:59:27.866Z,84.50
2018-03-18T22:01:56.410Z,84.10
2018-03-18T22:04:24.992Z,85.00
2018-03-18T22:06:52.621Z,84.60
2018-03-18T22:09:20.157Z,84.30
2018-03-18T22:11:48.639Z,84.90
2018-03-18T22:14:18.066Z,84.80
2018-03-18T22:16:45.722Z,84.90
2018-03-18T22:19:14.022Z,85.30
2018-03-18T22:21:42.528Z,85.20
2018-03-18T22:24:10.081Z,85.30
2018-03-18T22:26:37.675Z,85.50
2018-03-18T22:29:05.267Z,85.80
2018-03-18T22:31:32.792Z,86.00
2018-03-18T22:34:00.428Z,85.80
2018-03-18T22:36:27.981Z,85.70
2018-03-18T22:38:56.276Z,85.30
2018-03-18T22:41:23.864Z,85.20
2018-03-18T22:43:51.428Z,84.70
2018-03-18T22:46:18.980Z,84.50
2018-03-18T22:48:47.107Z,84.90
2018-03-18T22:51:14.673Z,85.30
2018-03-18T22:53:42.193Z,85.50
2018-03-18T22:56:09.851Z,85.30
2018-03-18T22:58:37.450Z,85.60
2018-03-18T23:01:05.027Z,86.60
2018-03-18T23:03:32.571Z,86.60
2018-03-18T23:06:00.147Z,85.80
2018-03-18T23:08:27.722Z,85.40
2018-03-18T23:10:55.387Z,85.90
2018-03-18T23:13:22.989Z,85.90
2018-03-18T23:15:50.536Z,86.00
2018-03-18T23:18:19.135Z,85.60
2018-03-18T23:20:47.624Z,85.70
2018-03-18T23:23:15.232Z,85.70
2018-03-18T23:25:42.854Z,86.00
2018-03-18T23:28:10.400Z,86.70
2018-03-18T23:30:39.577Z,85.90
2018-03-18T23:33:07.951Z,85.40
2018-03-18T23:35:35.533Z,85.10
2018-03-18T23:38:03.280Z,85.00
2018-03-18T23:40:31.744Z,84.30
2018-03-18T23:43:00.084Z,85.20
2018-03-18T23:45:28.538Z,85.10
2018-03-18T23:47:56.172Z,86.40
2018-03-18T23:50:23.812Z,86.00
2018-03-18T23:52:52.084Z,85.00
2018-03-18T23:55:19.657Z,85.00
2018-03-18T23:57:47.249Z,86.50
